Time;durP1;ratioP1;P1;durP2;ratioP2;P2;SDS_P1;SDS_P2;PMS_P1;PMS_P2;Temp;Humidity;BMP_temperature;BMP_pressure;BME280_temperature;BME280_humidity;BME280_pressure;Samples;Min_cycle;Max_cycle;Signal;HPM_P1;HPM_P2
2023/03/09 00:00:55;;;;;;;1999.90;999.90;;;10.90;99.90;;;;;;5013326;28;20026;-75
2023/03/09 00:03:21;;;;;;;1999.90;999.90;;;10.90;99.90;;;;;;5013180;28;20025;-77
2023/03/09 00:05:59;;;;;;;1999.90;999.90;;;10.90;99.90;;;;;;5013152;28;20030;-77
2023/03/09 00:08:27;;;;;;;1999.90;999.90;;;11.00;99.90;;;;;;5013217;28;20029;-75
2023/03/09 00:10:53;;;;;;;1999.90;999.90;;;11.10;99.90;;;;;;5013108;28;20113;-75
2023/03/09 00:13:20;;;;;;;1999.90;999.90;;;11.00;99.90;;;;;;5012320;28;20108;-75
2023/03/09 00:15:49;;;;;;;1999.90;999.90;;;11.10;99.90;;;;;;5005153;28;20035;-77
2023/03/09 00:18:20;;;;;;;1999.90;999.90;;;11.00;99.90;;;;;;4993684;28;20019;-77
2023/03/09 00:20:46;;;;;;;1999.90;999.90;;;11.10;99.90;;;;;;4993521;28;20533;-74
2023/03/09 00:23:11;;;;;;;1999.90;999.90;;;11.10;99.90;;;;;;4993582;28;20018;-75
2023/03/09 00:25:37;;;;;;;1999.90;999.90;;;11.10;99.90;;;;;;4993367;28;20446;-75
2023/03/09 00:28:04;;;;;;;1999.90;999.90;;;11.10;99.90;;;;;;4993474;28;20022;-74
2023/03/09 00:30:30;;;;;;;1999.90;999.90;;;11.10;99.90;;;;;;4993351;28;20105;-75
2023/03/09 00:32:56;;;;;;;1999.90;999.90;;;11.10;99.90;;;;;;4993731;28;20072;-75
2023/03/09 00:35:21;;;;;;;1999.90;999.90;;;11.20;99.90;;;;;;4993291;28;20074;-75
2023/03/09 00:37:47;;;;;;;1999.90;999.90;;;11.20;99.90;;;;;;4993196;28;20508;-77
2023/03/09 00:40:14;;;;;;;1999.90;999.90;;;11.30;99.90;;;;;;5013151;28;20385;-77
2023/03/09 00:42:43;;;;;;;1999.90;999.90;;;11.30;99.90;;;;;;5032468;28;20020;-75
2023/03/09 00:45:10;;;;;;;1999.90;999.90;;;11.30;99.90;;;;;;5030847;28;20510;-75
2023/03/09 00:47:35;;;;;;;1999.90;999.90;;;11.40;99.90;;;;;;5012660;28;20046;-75
2023/03/09 00:50:01;;;;;;;1999.90;999.90;;;11.40;99.90;;;;;;5012577;28;20108;-74
2023/03/09 00:52:27;;;;;;;1999.90;999.90;;;11.30;99.90;;;;;;5012912;28;20132;-77
2023/03/09 00:54:53;;;;;;;1999.90;999.90;;;11.30;99.90;;;;;;5012457;28;20036;-75
2023/03/09 00:57:22;;;;;;;1999.90;999.90;;;11.30;99.90;;;;;;5012939;28;20022;-76
2023/03/09 00:59:48;;;;;;;1999.90;999.90;;;11.30;99.90;;;;;;5013047;28;20022;-74
2023/03/09 01:02:14;;;;;;;1999.90;999.90;;;11.30;99.90;;;;;;5014181;28;20040;-75
2023/03/09 01:04:40;;;;;;;1999.90;999.90;;;11.30;99.90;;;;;;5016545;28;20026;-75
2023/03/09 01:07:06;;;;;;;1999.90;999.90;;;11.30;99.90;;;;;;5016487;28;20053;-77
2023/03/09 01:09:31;;;;;;;1999.90;999.90;;;11.40;99.90;;;;;;5016481;28;20440;-77
2023/03/09 01:11:57;;;;;;;1999.90;999.90;;;11.40;99.90;;;;;;5016779;28;20022;-75
2023/03/09 01:14:22;;;;;;;1999.90;999.90;;;11.40;99.90;;;;;;5015672;28;20053;-75
2023/03/09 01:16:48;;;;;;;1999.90;999.90;;;11.40;99.90;;;;;;4999305;28;20030;-75
2023/03/09 01:19:14;;;;;;;1999.90;999.90;;;11.50;99.90;;;;;;4996796;28;20027;-75
2023/03/09 01:21:39;;;;;;;1999.90;999.90;;;11.50;99.90;;;;;;4996902;28;20409;-75
2023/03/09 01:24:05;;;;;;;1999.90;999.90;;;11.50;99.90;;;;;;4996783;28;20026;-77
2023/03/09 01:26:31;;;;;;;1999.90;999.90;;;11.50;99.90;;;;;;4996359;28;20049;-77
2023/03/09 01:28:56;;;;;;;1999.90;999.90;;;11.50;99.90;;;;;;4996659;28;20034;-74
2023/03/09 01:31:22;;;;;;;1999.90;999.90;;;11.50;99.90;;;;;;4996373;28;20034;-75
2023/03/09 01:33:49;;;;;;;1999.90;999.90;;;11.60;99.90;;;;;;4996560;28;20030;-75
2023/03/09 01:36:17;;;;;;;1999.90;999.90;;;11.60;99.90;;;;;;4996574;28;20109;-74
2023/03/09 01:38:44;;;;;;;1999.90;999.90;;;11.60;99.90;;;;;;4996418;28;20030;-75
2023/03/09 01:41:11;;;;;;;1999.90;999.90;;;11.60;99.90;;;;;;5031184;28;20033;-75
2023/03/09 01:43:45;;;;;;;1999.90;999.90;;;11.60;99.90;;;;;;5035442;28;20033;-75
2023/03/09 01:46:25;;;;;;;1999.90;999.90;;;11.60;99.90;;;;;;5025536;28;20495;-78
2023/03/09 01:49:18;;;;;;;1999.90;999.90;;;11.60;99.90;;;;;;5015949;28;20092;-75
2023/03/09 01:51:58;;;;;;;1999.90;999.90;;;11.50;99.90;;;;;;5015690;28;20030;-77
2023/03/09 01:54:45;;;;;;;1999.90;999.90;;;11.50;99.90;;;;;;5015728;28;20465;-75
2023/03/09 01:57:22;;;;;;;1999.90;999.90;;;11.40;99.90;;;;;;5015687;28;20033;-75
2023/03/09 01:59:50;;;;;;;1999.90;999.90;;;11.40;99.90;;;;;;5015921;28;20015;-75
2023/03/09 02:02:17;;;;;;;1999.90;999.90;;;11.40;99.90;;;;;;5015653;28;20033;-75
2023/03/09 02:04:52;;;;;;;1999.90;999.90;;;11.40;99.90;;;;;;5015444;28;20117;-77
2023/03/09 02:07:20;;;;;;;1999.90;999.90;;;11.40;99.90;;;;;;5015362;28;20485;-75
2023/03/09 02:09:51;;;;;;;1999.90;999.90;;;11.40;99.90;;;;;;5015327;28;20014;-75
2023/03/09 02:12:19;;;;;;;1999.90;999.90;;;11.40;99.90;;;;;;5015602;28;20026;-77
2023/03/09 02:14:44;;;;;;;1999.90;999.90;;;11.40;99.90;;;;;;5013359;28;20017;-77
2023/03/09 02:17:12;;;;;;;1999.90;999.90;;;11.40;99.90;;;;;;4995940;28;20430;-75
2023/03/09 02:19:53;;;;;;;1999.90;999.90;;;11.30;99.90;;;;;;4995637;28;20566;-78
2023/03/09 02:22:19;;;;;;;1999.90;999.90;;;11.20;99.90;;;;;;4995587;28;20397;-75
2023/03/09 02:24:54;;;;;;;1999.90;999.90;;;11.10;99.90;;;;;;4995328;28;20033;-75
2023/03/09 02:27:22;;;;;;;1999.90;999.90;;;11.00;99.90;;;;;;4995378;28;20470;-75
2023/03/09 02:29:48;;;;;;;1999.90;999.90;;;11.00;99.90;;;;;;4995461;28;20014;-75
2023/03/09 02:32:15;;;;;;;1999.90;999.90;;;11.10;99.90;;;;;;4995606;28;20167;-74
2023/03/09 02:34:41;;;;;;;1999.90;999.90;;;11.20;99.90;;;;;;4995129;28;20034;-75
2023/03/09 02:37:37;;;;;;;1999.90;999.90;;;11.20;99.90;;;;;;4995386;28;20023;-77
2023/03/09 02:40:10;;;;;;;1999.90;999.90;;;11.20;99.90;;;;;;5015669;28;20508;-75
2023/03/09 02:42:37;;;;;;;1999.90;999.90;;;11.10;99.90;;;;;;5034427;28;20018;-77
2023/03/09 02:45:03;;;;;;;1999.90;999.90;;;11.10;99.90;;;;;;5033761;28;20484;-77
2023/03/09 02:47:28;;;;;;;1999.90;999.90;;;11.10;99.90;;;;;;5014479;28;20042;-75
2023/03/09 02:49:54;;;;;;;1999.90;999.90;;;11.10;99.90;;;;;;5014797;28;20038;-77
2023/03/09 02:52:20;;;;;;;1999.90;999.90;;;11.20;99.90;;;;;;5014697;28;20032;-78
2023/03/09 02:54:45;;;;;;;1999.90;999.90;;;11.20;99.90;;;;;;5014335;28;20036;-77
2023/03/09 02:57:11;;;;;;;1999.90;999.90;;;11.20;99.90;;;;;;5014600;28;20083;-75
2023/03/09 02:59:37;;;;;;;1999.90;999.90;;;11.20;99.90;;;;;;5014689;28;20097;-77
2023/03/09 03:02:02;;;;;;;1999.90;999.90;;;11.20;99.90;;;;;;5014516;28;20018;-75
2023/03/09 03:04:28;;;;;;;1999.90;999.90;;;11.20;99.90;;;;;;5014242;28;20105;-75
2023/03/09 03:06:54;;;;;;;1999.90;999.90;;;11.20;99.90;;;;;;5014326;28;20033;-77
2023/03/09 03:09:19;;;;;;;1999.90;999.90;;;11.20;99.90;;;;;;5014275;28;20061;-76
2023/03/09 03:11:45;;;;;;;1999.90;999.90;;;11.20;99.90;;;;;;5013942;28;20030;-77
2023/03/09 03:14:10;;;;;;;1999.90;999.90;;;11.20;99.90;;;;;;5013796;28;20045;-75
2023/03/09 03:16:36;;;;;;;1999.90;999.90;;;11.20;99.90;;;;;;4999297;28;20031;-75
2023/03/09 03:19:02;;;;;;;1999.90;999.90;;;11.20;99.90;;;;;;4994503;28;20482;-75
2023/03/09 03:21:28;;;;;;;1999.90;999.90;;;11.10;99.90;;;;;;4994594;28;20386;-76
2023/03/09 03:23:54;;;;;;;1999.90;999.90;;;11.10;99.90;;;;;;4994370;28;20023;-77
2023/03/09 03:26:19;;;;;;;1999.90;999.90;;;11.10;99.90;;;;;;4994104;28;20093;-75
2023/03/09 03:28:45;;;;;;;1999.90;999.90;;;11.10;99.90;;;;;;4994368;28;20034;-75
2023/03/09 03:31:12;;;;;;;1999.90;999.90;;;11.00;99.90;;;;;;4994365;28;20505;-75
2023/03/09 03:33:38;;;;;;;1999.90;999.90;;;11.00;99.90;;;;;;4994348;28;20026;-75
2023/03/09 03:36:03;;;;;;;1999.90;999.90;;;11.00;99.90;;;;;;4994234;28;20036;-75
2023/03/09 03:38:29;;;;;;;1999.90;999.90;;;11.00;99.90;;;;;;4994123;28;20033;-75
2023/03/09 03:40:55;;;;;;;1999.90;999.90;;;11.00;99.90;;;;;;5024890;28;20106;-75
2023/03/09 03:43:20;;;;;;;1999.90;999.90;;;11.00;99.90;;;;;;5033392;28;20485;-75
2023/03/09 03:45:46;;;;;;;1999.90;999.90;;;11.00;99.90;;;;;;5026784;28;20036;-75
2023/03/09 03:48:11;;;;;;;1999.90;999.90;;;11.00;99.90;;;;;;5013481;28;20049;-75
2023/03/09 03:50:37;;;;;;;1999.90;999.90;;;11.00;99.90;;;;;;5013719;28;20044;-75
2023/03/09 03:53:03;;;;;;;1999.90;999.90;;;11.10;99.90;;;;;;5013610;28;20037;-75
2023/03/09 03:55:30;;;;;;;1999.90;999.90;;;11.00;99.90;;;;;;5012020;28;20465;-75
2023/03/09 03:57:55;;;;;;;1999.90;999.90;;;10.90;99.90;;;;;;5013820;28;20040;-75
2023/03/09 04:00:22;;;;;;;1999.90;999.90;;;10.90;99.90;;;;;;5013533;28;20101;-75
2023/03/09 04:02:48;;;;;;;1999.90;999.90;;;10.90;99.90;;;;;;5013375;28;20018;-76
2023/03/09 04:05:14;;;;;;;1999.90;999.90;;;10.90;99.90;;;;;;5013674;28;20097;-75
2023/03/09 04:07:39;;;;;;;1999.90;999.90;;;10.90;99.90;;;;;;5013162;28;20067;-75
2023/03/09 04:10:05;;;;;;;1999.90;999.90;;;10.90;99.90;;;;;;5013670;28;20030;-75
2023/03/09 04:12:31;;;;;;;1999.90;999.90;;;10.90;99.90;;;;;;5013279;28;20045;-75
2023/03/09 04:14:56;;;;;;;1999.90;999.90;;;10.90;99.90;;;;;;5011269;28;20397;-75
2023/03/09 04:17:22;;;;;;;1999.90;999.90;;;10.90;99.90;;;;;;4993052;28;20107;-75
2023/03/09 04:19:48;;;;;;;1999.90;999.90;;;11.00;99.90;;;;;;4993640;28;20399;-79
2023/03/09 04:22:13;;;;;;;1999.90;999.90;;;11.10;99.90;;;;;;4993884;28;20030;-75
2023/03/09 04:24:39;;;;;;;1999.90;999.90;;;11.10;99.90;;;;;;5008591;28;20028;-75
2023/03/09 04:27:04;;;;;;;1999.90;999.90;;;11.10;99.90;;;;;;4993535;28;20022;-75
2023/03/09 04:29:30;;;;;;;1999.90;999.90;;;11.10;99.90;;;;;;4993425;28;20026;-75
2023/03/09 04:31:56;;;;;;;1999.90;999.90;;;11.10;99.90;;;;;;4993966;28;20057;-78
2023/03/09 04:34:21;;;;;;;1999.90;999.90;;;11.10;99.90;;;;;;4993592;28;20062;-75
2023/03/09 04:36:47;;;;;;;1999.90;999.90;;;11.00;99.90;;;;;;4994228;28;20058;-75
2023/03/09 04:39:12;;;;;;;1999.90;999.90;;;11.00;99.90;;;;;;5000227;28;20041;-76
2023/03/09 04:41:38;;;;;;;1999.90;999.90;;;11.10;99.90;;;;;;5036698;28;20083;-75
2023/03/09 04:44:04;;;;;;;1999.90;999.90;;;11.10;99.90;;;;;;5036990;28;20043;-79
2023/03/09 04:46:29;;;;;;;1999.90;999.90;;;11.10;99.90;;;;;;5023898;28;20489;-75
2023/03/09 04:48:55;;;;;;;1999.90;999.90;;;11.20;99.90;;;;;;5015376;28;20053;-78
2023/03/09 04:51:21;;;;;;;1999.90;999.90;;;11.30;99.90;;;;;;5016806;28;20034;-75
2023/03/09 04:53:47;;;;;;;1999.90;999.90;;;11.30;99.90;;;;;;5016816;28;20053;-75
2023/03/09 04:56:13;;;;;;;1999.90;999.90;;;11.40;99.90;;;;;;5016831;28;20030;-76
2023/03/09 04:58:38;;;;;;;1999.90;999.90;;;11.40;99.90;;;;;;5016707;28;20017;-75
2023/03/09 05:01:04;;;;;;;1999.90;999.90;;;11.40;99.90;;;;;;5016857;28;20025;-75
2023/03/09 05:03:30;;;;;;;1999.90;999.90;;;11.40;99.90;;;;;;5016350;28;20442;-76
2023/03/09 05:05:55;;;;;;;1999.90;999.90;;;11.40;99.90;;;;;;5016621;28;20034;-75
2023/03/09 05:08:21;;;;;;;1999.90;999.90;;;11.40;99.90;;;;;;5016540;28;20034;-75
2023/03/09 05:10:47;;;;;;;1999.90;999.90;;;11.40;99.90;;;;;;5014983;28;20088;-75
2023/03/09 05:13:13;;;;;;;1999.90;999.90;;;11.40;99.90;;;;;;5016499;28;20022;-75
2023/03/09 05:15:39;;;;;;;1999.90;999.90;;;11.30;99.90;;;;;;5008677;28;20037;-75
2023/03/09 05:18:06;;;;;;;1999.90;999.90;;;11.30;99.90;;;;;;4996850;28;20081;-79
2023/03/09 05:20:32;;;;;;;1999.90;999.90;;;11.30;99.90;;;;;;5014868;28;20040;-75
2023/03/09 05:22:59;;;;;;;1999.90;999.90;;;11.30;99.90;;;;;;5016586;28;20615;-79
2023/03/09 05:25:24;;;;;;;1999.90;999.90;;;11.30;99.90;;;;;;5016145;28;20029;-75
2023/03/09 05:27:50;;;;;;;1999.90;999.90;;;11.30;99.90;;;;;;5016067;28;20030;-75
2023/03/09 05:30:17;;;;;;;1999.90;999.90;;;11.30;99.90;;;;;;5016423;28;20030;-75
2023/03/09 05:32:42;;;;;;;1999.90;999.90;;;11.30;99.90;;;;;;5016069;28;20036;-75
2023/03/09 05:35:08;;;;;;;1999.90;999.90;;;11.30;99.90;;;;;;5015987;28;20030;-75
2023/03/09 05:37:34;;;;;;;1999.90;999.90;;;11.40;99.90;;;;;;5015918;28;20026;-78
2023/03/09 05:40:00;;;;;;;1999.90;999.90;;;11.40;99.90;;;;;;5022428;28;20116;-75
2023/03/09 05:42:26;;;;;;;1999.90;999.90;;;11.40;99.90;;;;;;5035698;28;20520;-76
2023/03/09 05:44:51;;;;;;;1999.90;999.90;;;11.30;99.90;;;;;;5035767;28;20030;-75
2023/03/09 05:47:17;;;;;;;1999.90;999.90;;;11.30;99.90;;;;;;5016013;28;20132;-78
2023/03/09 05:49:43;;;;;;;1999.90;999.90;;;11.30;99.90;;;;;;5014588;28;20441;-75
2023/03/09 05:52:08;;;;;;;1999.90;999.90;;;11.30;99.90;;;;;;5015629;28;20029;-76
2023/03/09 05:54:35;;;;;;;1999.90;999.90;;;11.40;99.90;;;;;;5015681;28;20180;-79
2023/03/09 05:57:00;;;;;;;1999.90;999.90;;;11.40;99.90;;;;;;5015477;28;20128;-75
2023/03/09 05:59:26;;;;;;;1999.90;999.90;;;11.50;99.90;;;;;;5018314;28;20096;-76
2023/03/09 06:01:51;;;;;;;1999.90;999.90;;;11.50;99.90;;;;;;5014869;28;20109;-76
2023/03/09 06:04:17;;;;;;;1999.90;999.90;;;11.50;99.90;;;;;;5015170;28;20393;-75
2023/03/09 06:06:43;;;;;;;1999.90;999.90;;;11.50;99.90;;;;;;5015198;28;20484;-76
2023/03/09 06:09:08;;;;;;;1999.90;999.90;;;11.40;99.90;;;;;;5015334;28;20022;-76
2023/03/09 06:11:34;;;;;;;1999.90;999.90;;;11.40;99.90;;;;;;5015123;28;20489;-75
2023/03/09 06:14:00;;;;;;;1999.90;999.90;;;11.30;99.90;;;;;;5015395;28;20509;-76
2023/03/09 06:16:26;;;;;;;1999.90;999.90;;;11.30;99.90;;;;;;5001106;28;20035;-75
2023/03/09 06:18:55;;;;;;;1999.90;999.90;;;11.20;99.90;;;;;;4995496;28;20109;-75
2023/03/09 06:21:21;;;;;;;1999.90;999.90;;;11.20;99.90;;;;;;4995623;28;20105;-76
2023/03/09 06:23:46;;;;;;;1999.90;999.90;;;11.20;99.90;;;;;;5026934;28;20521;-79
2023/03/09 06:26:13;;;;;;;1999.90;999.90;;;11.20;99.90;;;;;;4995422;28;20026;-75
2023/03/09 06:28:39;;;;;;;1999.90;999.90;;;11.20;99.90;;;;;;4995044;28;20105;-75
2023/03/09 06:31:07;;;;;;;1999.90;999.90;;;11.20;99.90;;;;;;5010019;28;20558;-78
2023/03/09 06:33:33;;;;;;;1999.90;999.90;;;11.10;99.90;;;;;;5014359;28;20510;-79
2023/03/09 06:36:02;;;;;;;1999.90;999.90;;;11.10;99.90;;;;;;5011039;28;20033;-79
2023/03/09 06:38:28;;;;;;;1999.90;999.90;;;11.20;99.90;;;;;;5014276;28;20036;-79
2023/03/09 06:40:54;;;;;;;1999.90;999.90;;;11.20;99.90;;;;;;5020111;28;20786;-75
2023/03/09 06:43:20;;;;;;;1999.90;999.90;;;11.20;99.90;;;;;;5013728;28;20060;-75
2023/03/09 06:45:46;;;;;;;1999.90;999.90;;;11.30;99.90;;;;;;5014224;28;20021;-78
2023/03/09 06:48:12;;;;;;;1999.90;999.90;;;11.40;99.90;;;;;;5013986;28;20129;-76
2023/03/09 06:50:38;;;;;;;1999.90;999.90;;;11.40;99.90;;;;;;5019923;28;20025;-74
2023/03/09 06:53:03;;;;;;;1999.90;999.90;;;11.40;99.90;;;;;;5033886;28;20072;-73
2023/03/09 06:55:29;;;;;;;1999.90;999.90;;;11.40;99.90;;;;;;5033593;28;20049;-74
2023/03/09 06:57:54;;;;;;;1999.90;999.90;;;11.40;99.90;;;;;;5023753;28;20030;-74
2023/03/09 07:00:20;;;;;;;1999.90;999.90;;;11.40;99.90;;;;;;5028006;28;20014;-75
2023/03/09 07:02:46;;;;;;;1999.90;999.90;;;11.40;99.90;;;;;;5010351;28;20034;-75
2023/03/09 07:05:12;;;;;;;1999.90;999.90;;;11.40;99.90;;;;;;5010501;28;20459;-73
2023/03/09 07:07:39;;;;;;;1999.90;999.90;;;11.40;99.90;;;;;;5009415;28;20104;-73
2023/03/09 07:10:05;;;;;;;1999.90;999.90;;;11.50;99.90;;;;;;5009967;28;20021;-76
2023/03/09 07:12:31;;;;;;;1999.90;999.90;;;11.60;99.90;;;;;;5009942;28;20030;-75
2023/03/09 07:14:57;;;;;;;1999.90;999.90;;;11.70;99.90;;;;;;5009383;28;20061;-74
2023/03/09 07:17:22;;;;;;;1999.90;999.90;;;11.70;99.90;;;;;;5006710;28;20467;-74
2023/03/09 07:19:48;;;;;;;1999.90;999.90;;;11.80;99.90;;;;;;5010141;28;20018;-74
2023/03/09 07:22:13;;;;;;;1999.90;999.90;;;11.80;99.90;;;;;;5011976;28;20029;-74
2023/03/09 07:24:39;;;;;;;1999.90;999.90;;;11.90;99.90;;;;;;5009747;28;20061;-75
2023/03/09 07:27:07;;;;;;;1999.90;999.90;;;11.90;99.90;;;;;;5010170;28;20034;-74
2023/03/09 07:29:32;;;;;;;1999.90;999.90;;;11.90;99.90;;;;;;5010879;28;20022;-74
2023/03/09 07:32:00;;;;;;;1999.90;999.90;;;11.90;99.90;;;;;;5014926;28;20045;-73
2023/03/09 07:34:25;;;;;;;1999.90;999.90;;;11.80;99.90;;;;;;5010132;28;20018;-73
2023/03/09 07:36:51;;;;;;;1999.90;999.90;;;11.80;99.90;;;;;;5019276;28;20094;-74
2023/03/09 07:39:16;;;;;;;1999.90;999.90;;;11.90;99.90;;;;;;5012372;28;20424;-74
2023/03/09 07:41:42;;;;;;;1999.90;999.90;;;11.90;99.90;;;;;;5020193;28;20152;-76
2023/03/09 07:44:08;;;;;;;1999.90;999.90;;;12.00;99.90;;;;;;5007061;28;20104;-73
2023/03/09 07:46:34;;;;;;;1999.90;999.90;;;12.10;99.90;;;;;;5009840;28;20052;-74
2023/03/09 07:48:59;;;;;;;1999.90;999.90;;;12.20;99.90;;;;;;5009823;28;20038;-74
2023/03/09 07:51:25;;;;;;;1999.90;999.90;;;12.20;99.90;;;;;;5010112;28;20420;-76
2023/03/09 07:53:51;;;;;;;1999.90;999.90;;;12.20;99.90;;;;;;5009674;28;20552;-78
2023/03/09 07:56:17;;;;;;;1999.90;999.90;;;12.30;99.90;;;;;;5010146;28;20034;-77
2023/03/09 07:58:44;;;;;;;1999.90;999.90;;;12.20;99.90;;;;;;5007569;28;20124;-74
2023/03/09 08:01:14;;;;;;;1999.90;999.90;;;12.30;99.90;;;;;;5011611;28;20021;-77
2023/03/09 08:03:40;;;;;;;1999.90;999.90;;;12.40;99.90;;;;;;5015292;28;20075;-75
2023/03/09 08:06:06;;;;;;;1999.90;999.90;;;12.50;99.90;;;;;;5020886;28;20140;-77
2023/03/09 08:08:33;;;;;;;1999.90;999.90;;;12.60;99.90;;;;;;5008322;28;20607;-79
2023/03/09 08:10:59;;;;;;;1999.90;999.90;;;12.50;99.90;;;;;;5012917;28;20385;-75
2023/03/09 08:13:24;;;;;;;1999.90;999.90;;;12.50;99.90;;;;;;5011469;28;20034;-76
2023/03/09 08:15:52;;;;;;;1999.90;999.90;;;12.50;99.90;;;;;;5001357;28;20033;-78
2023/03/09 08:18:18;;;;;;;1999.90;999.90;;;12.40;99.90;;;;;;5019112;28;20029;-78
2023/03/09 08:20:44;;;;;;;1999.90;999.90;;;12.40;99.90;;;;;;5021691;28;20385;-76
2023/03/09 08:23:10;;;;;;;1999.90;999.90;;;12.40;99.90;;;;;;5022845;28;20850;-76
2023/03/09 08:25:36;;;;;;;1999.90;999.90;;;12.50;99.90;;;;;;5022499;28;20025;-76
2023/03/09 08:28:02;;;;;;;1999.90;999.90;;;12.80;99.90;;;;;;5019588;28;20037;-76
2023/03/09 08:30:28;;;;;;;1999.90;999.90;;;12.60;99.90;;;;;;5027919;28;20075;-77
2023/03/09 08:32:54;;;;;;;1999.90;999.90;;;12.50;99.90;;;;;;5023728;28;20203;-80
2023/03/09 08:35:22;;;;;;;1999.90;999.90;;;12.60;99.90;;;;;;5028101;28;20022;-80
2023/03/09 08:37:48;;;;;;;1999.90;999.90;;;12.70;99.90;;;;;;5056554;28;20065;-76
2023/03/09 08:40:15;;;;;;;1999.90;999.90;;;13.20;99.90;;;;;;5019407;28;20025;-77
2023/03/09 08:42:42;;;;;;;1999.90;999.90;;;13.10;99.90;;;;;;5015707;28;20033;-81
2023/03/09 08:45:08;;;;;;;1999.90;999.90;;;12.90;99.90;;;;;;5007521;28;20439;-81
2023/03/09 08:47:35;;;;;;;1999.90;999.90;;;12.80;99.90;;;;;;5009167;28;20057;-76
2023/03/09 08:50:01;;;;;;;1999.90;999.90;;;12.70;99.90;;;;;;5009625;28;20052;-76
2023/03/09 08:52:27;;;;;;;1999.90;999.90;;;12.60;99.90;;;;;;5009143;28;20026;-74
2023/03/09 08:54:52;;;;;;;1999.90;999.90;;;12.40;99.90;;;;;;5008948;28;20030;-73
2023/03/09 08:57:18;;;;;;;1999.90;999.90;;;12.20;99.90;;;;;;5009093;28;20030;-73
2023/03/09 08:59:46;;;;;;;1999.90;999.90;;;12.20;99.90;;;;;;5024074;28;20029;-74
2023/03/09 09:02:14;;;;;;;1999.90;999.90;;;12.20;99.90;;;;;;5018527;28;20033;-76
2023/03/09 09:04:43;;;;;;;1999.90;999.90;;;12.10;99.90;;;;;;5008110;28;20068;-75
2023/03/09 09:07:09;;;;;;;1999.90;999.90;;;12.10;99.90;;;;;;5013242;28;20038;-74
2023/03/09 09:09:35;;;;;;;1999.90;999.90;;;12.00;99.90;;;;;;5008420;28;20022;-75
2023/03/09 09:12:00;;;;;;;1999.90;999.90;;;12.00;99.90;;;;;;5008506;28;20452;-75
2023/03/09 09:14:27;;;;;;;1999.90;999.90;;;12.00;99.90;;;;;;5004777;28;20023;-75
2023/03/09 09:16:52;;;;;;;1999.90;999.90;;;12.30;99.90;;;;;;5008020;28;20033;-74
2023/03/09 09:19:18;;;;;;;1999.90;999.90;;;12.50;99.90;;;;;;5008337;28;20037;-74
2023/03/09 09:21:44;;;;;;;1999.90;999.90;;;13.00;99.90;;;;;;5006118;28;20084;-79
2023/03/09 09:24:10;;;;;;;1999.90;999.90;;;13.30;99.90;;;;;;5009928;28;20116;-78
2023/03/09 09:26:35;;;;;;;1999.90;999.90;;;13.10;99.90;;;;;;5012685;28;20477;-74
2023/03/09 09:29:02;;;;;;;1999.90;999.90;;;13.10;99.90;;;;;;5017608;28;20046;-74
2023/03/09 09:31:28;;;;;;;1999.90;999.90;;;13.10;99.90;;;;;;5012999;28;20033;-74
2023/03/09 09:33:54;;;;;;;1999.90;999.90;;;14.00;99.90;;;;;;5018567;28;20026;-78
2023/03/09 09:36:19;;;;;;;1999.90;999.90;;;15.50;99.90;;;;;;5025020;28;20420;-78
2023/03/09 09:38:46;;;;;;;1999.90;999.90;;;15.80;99.90;;;;;;5013519;28;20060;-76
2023/03/09 09:41:30;;;;;;;1999.90;999.90;;;15.50;99.90;;;;;;5029631;28;20033;-75
2023/03/09 09:44:00;;;;;;;1999.90;999.90;;;14.60;99.90;;;;;;5022129;28;20030;-78
2023/03/09 09:46:28;;;;;;;1999.90;999.90;;;14.20;99.90;;;;;;5016199;28;20073;-78
2023/03/09 09:48:54;;;;;;;1999.90;999.90;;;13.90;99.90;;;;;;5038228;28;20033;-79
2023/03/09 09:51:50;;;;;;;1999.90;999.90;;;13.80;99.90;;;;;;5024009;28;20044;-78
2023/03/09 09:54:47;;;;;;;1999.90;999.90;;;14.20;99.90;;;;;;5020012;28;20140;-75
2023/03/09 09:57:36;;;;;;;1999.90;999.90;;;14.40;99.90;;;;;;5016852;28;20026;-75
2023/03/09 10:00:46;;;;;;;1999.90;999.90;;;14.20;99.90;;;;;;5032240;28;20041;-79
2023/03/09 10:03:30;;;;;;;1999.90;999.90;;;14.40;99.90;;;;;;5019840;28;20041;-76
2023/03/09 10:06:16;;;;;;;1999.90;999.90;;;14.60;99.90;;;;;;5013039;28;20030;-78
2023/03/09 10:09:03;;;;;;;1999.90;999.90;;;14.80;99.90;;;;;;5030485;28;20061;-75
2023/03/09 10:11:38;;;;;;;1999.90;999.90;;;14.90;99.90;;;;;;5033591;28;20033;-77
2023/03/09 10:15:00;;;;;;;1999.90;999.90;;;14.90;99.90;;;;;;5028547;28;20021;-78
2023/03/09 10:17:32;;;;;;;1999.90;999.90;;;14.90;99.90;;;;;;5017520;28;20075;-76
2023/03/09 10:20:08;;;;;;;1999.90;999.90;;;14.90;99.90;;;;;;5029714;28;20116;-76
2023/03/09 10:22:34;;;;;;;1999.90;999.90;;;15.00;99.90;;;;;;5001500;28;20045;-76
2023/03/09 10:25:00;;;;;;;1999.90;999.90;;;15.20;99.90;;;;;;5029293;28;20088;-78
2023/03/09 10:27:37;;;;;;;1999.90;999.90;;;15.30;99.90;;;;;;5038627;28;20962;-78
2023/03/09 10:30:14;;;;;;;1999.90;999.90;;;15.50;99.90;;;;;;5021490;28;20497;-79
2023/03/09 10:32:40;;;;;;;1999.90;999.90;;;15.60;99.90;;;;;;5018797;28;20034;-79
2023/03/09 10:35:31;;;;;;;1999.90;999.90;;;15.40;99.90;;;;;;5024957;28;20629;-75
2023/03/09 10:37:57;;;;;;;1999.90;999.90;;;15.40;99.90;;;;;;5028164;28;20041;-79
2023/03/09 10:40:32;;;;;;;1999.90;999.90;;;15.50;99.90;;;;;;5010083;28;20026;-78
2023/03/09 10:42:59;;;;;;;1999.90;999.90;;;15.50;99.90;;;;;;5011886;28;20022;-77
2023/03/09 10:45:30;;;;;;;1999.90;999.90;;;15.70;99.90;;;;;;5012951;28;20053;-79
2023/03/09 10:47:59;;;;;;;1999.90;999.90;;;15.80;99.90;;;;;;5019559;28;20049;-75
2023/03/09 10:50:53;;;;;;;1999.90;999.90;;;15.90;99.90;;;;;;5028598;28;20570;-77
2023/03/09 10:53:43;;;;;;;1999.90;999.90;;;15.80;99.90;;;;;;5029662;28;20076;-77
2023/03/09 10:56:25;;;;;;;1999.90;999.90;;;16.00;99.90;;;;;;5011568;28;20113;-77
2023/03/09 10:59:03;;;;;;;1999.90;999.90;;;16.30;99.90;;;;;;5014070;28;20025;-78
2023/03/09 11:01:29;;;;;;;1999.90;999.90;;;16.20;99.90;;;;;;5027000;28;20054;-76
2023/03/09 11:03:55;;;;;;;1999.90;999.90;;;16.40;99.90;;;;;;5019875;28;20543;-80
2023/03/09 11:06:37;;;;;;;1999.90;999.90;;;16.20;99.90;;;;;;5012101;28;20032;-76
2023/03/09 11:09:14;;;;;;;1999.90;999.90;;;16.20;99.90;;;;;;5012443;28;20030;-76
2023/03/09 11:11:42;;;;;;;1999.90;999.90;;;16.50;99.90;;;;;;5009882;28;20496;-79
2023/03/09 11:14:26;;;;;;;1999.90;999.90;;;16.40;99.90;;;;;;5008302;28;20571;-76
2023/03/09 11:16:55;;;;;;;1999.90;999.90;;;16.50;99.90;;;;;;5008930;28;20030;-77
2023/03/09 11:19:21;;;;;;;1999.90;999.90;;;16.50;99.90;;;;;;5010215;28;20547;-76
2023/03/09 11:21:54;;;;;;;1999.90;999.90;;;16.40;99.90;;;;;;5006915;28;20026;-80
2023/03/09 11:24:22;;;;;;;1999.90;999.90;;;16.40;99.90;;;;;;5010063;28;20026;-78
2023/03/09 11:27:01;;;;;;;1999.90;999.90;;;16.50;99.90;;;;;;5008837;28;20408;-77
2023/03/09 11:30:01;;;;;;;1999.90;999.90;;;16.10;99.90;;;;;;4999296;28;20030;-76
2023/03/09 11:32:27;;;;;;;1999.90;999.90;;;15.90;99.90;;;;;;5004781;28;20064;-80
2023/03/09 11:34:53;;;;;;;1999.90;999.90;;;15.50;99.90;;;;;;5009445;28;20113;-79
2023/03/09 11:37:25;;;;;;;1999.90;999.90;;;15.10;99.90;;;;;;5009918;28;20175;-79
2023/03/09 11:40:12;;;;;;;1999.90;999.90;;;14.90;99.90;;;;;;5015411;28;20029;-78
2023/03/09 11:42:59;;;;;;;1999.90;999.90;;;14.80;99.90;;;;;;5027887;28;20029;-76
2023/03/09 11:45:30;;;;;;;1999.90;999.90;;;14.90;99.90;;;;;;5011795;28;20026;-78
2023/03/09 11:48:14;;;;;;;1999.90;999.90;;;15.00;99.90;;;;;;5009020;28;20060;-78
2023/03/09 11:50:56;;;;;;;1999.90;999.90;;;15.10;99.90;;;;;;5025552;28;20025;-80
2023/03/09 11:53:35;;;;;;;1999.90;999.90;;;15.30;99.90;;;;;;5016332;28;20026;-76
2023/03/09 11:56:20;;;;;;;1999.90;999.90;;;15.60;99.90;;;;;;5019314;28;20045;-79
2023/03/09 11:58:53;;;;;;;1999.90;999.90;;;15.70;99.90;;;;;;5013387;28;20088;-77
2023/03/09 12:01:34;;;;;;;1999.90;999.90;;;15.60;99.90;;;;;;5024301;28;20034;-80
2023/03/09 12:04:07;;;;;;;1999.90;999.90;;;15.50;99.90;;;;;;5012497;28;20030;-80
2023/03/09 12:06:36;;;;;;;1999.90;999.90;;;15.30;99.90;;;;;;5013080;28;20589;-77